Time;durP1;ratioP1;P1;durP2;ratioP2;P2;SDS_P1;SDS_P2;PMS_P1;PMS_P2;Temp;Humidity;BMP_temperature;BMP_pressure;BME280_temperature;BME280_humidity;BME280_pressure;Samples;Min_cycle;Max_cycle;Signal;HPM_P1;HPM_P2
2023/10/23 00:01:46;;;;;;;4.70;1.80;;;10.10;77.70;;;12.24;53.63;97386.53;5012400;28;20045;-41
2023/10/23 00:04:14;;;;;;;5.70;2.10;;;10.10;78.00;;;12.19;54.01;97382.56;5010759;28;20520;-40
2023/10/23 00:06:42;;;;;;;3.67;1.70;;;10.10;78.20;;;12.18;53.83;97382.75;5019171;28;20068;-41
2023/10/23 00:09:09;;;;;;;2.33;1.77;;;10.10;78.20;;;12.13;53.91;97383.25;5011745;28;20119;-40
2023/10/23 00:11:37;;;;;;;4.67;2.50;;;10.00;78.20;;;12.11;54.14;97382.59;5012121;28;20042;-40
2023/10/23 00:14:04;;;;;;;4.17;2.10;;;10.00;78.10;;;12.07;54.20;97386.63;5012028;28;20072;-40
2023/10/23 00:16:32;;;;;;;4.73;2.30;;;10.00;78.30;;;12.01;54.27;97377.50;5012054;28;20053;-40
2023/10/23 00:19:00;;;;;;;5.50;2.10;;;9.90;78.80;;;11.97;54.07;97381.53;5008748;28;20595;-40
2023/10/23 00:21:27;;;;;;;9.47;2.17;;;9.90;78.60;;;11.95;54.31;97380.88;5011091;28;20054;-40
2023/10/23 00:23:55;;;;;;;3.17;1.90;;;9.80;78.40;;;11.91;54.11;97392.91;5010440;28;20050;-40
2023/10/23 00:26:22;;;;;;;5.03;2.03;;;9.80;78.40;;;11.88;54.05;97393.22;5011791;28;20046;-40
2023/10/23 00:28:53;;;;;;;4.80;2.13;;;9.80;78.70;;;11.83;54.03;97399.09;5011486;28;20042;-40
2023/10/23 00:31:20;;;;;;;2.80;1.50;;;9.70;79.00;;;11.82;54.27;97396.59;5010713;28;20045;-40
2023/10/23 00:33:48;;;;;;;3.47;1.80;;;9.70;79.20;;;11.77;54.63;97396.31;5010234;28;20054;-40
2023/10/23 00:36:16;;;;;;;5.40;2.03;;;9.70;79.60;;;11.75;54.73;97400.97;5009694;28;20494;-41
2023/10/23 00:38:43;;;;;;;2.10;1.60;;;9.70;79.70;;;11.75;54.91;97401.81;5011342;28;20045;-40
2023/10/23 00:41:11;;;;;;;2.67;1.40;;;9.70;79.90;;;11.76;54.83;97407.97;5010835;28;20054;-40
2023/10/23 00:43:39;;;;;;;2.87;1.50;;;9.70;79.80;;;11.76;54.88;97406.13;5010631;28;20046;-40
2023/10/23 00:46:16;;;;;;;3.93;1.73;;;9.80;80.00;;;11.76;54.89;97402.63;5011632;28;20038;-41
2023/10/23 00:48:44;;;;;;;3.63;1.87;;;9.70;80.10;;;11.74;54.75;97402.78;5001988;28;20512;-41
2023/10/23 00:51:12;;;;;;;2.33;1.60;;;9.80;80.10;;;11.75;55.20;97406.31;5018690;28;20117;-40
2023/10/23 00:53:42;;;;;;;3.07;1.97;;;9.80;80.60;;;11.77;55.12;97399.78;5019005;28;20732;-40
2023/10/23 00:56:11;;;;;;;4.43;1.70;;;9.80;80.20;;;11.78;55.37;97396.09;4993684;28;20054;-40
2023/10/23 00:58:42;;;;;;;3.03;1.80;;;9.80;79.90;;;11.81;55.26;97395.75;5001944;28;20065;-40
2023/10/23 01:01:12;;;;;;;2.97;1.70;;;9.80;79.50;;;11.78;55.44;97390.75;5010478;28;20414;-41
2023/10/23 01:03:42;;;;;;;5.10;1.53;;;9.90;80.00;;;11.79;55.25;97397.78;5011234;28;20224;-39
2023/10/23 01:06:10;;;;;;;4.00;1.60;;;9.90;80.10;;;11.82;55.67;97396.59;5011361;28;20410;-40
2023/10/23 01:08:38;;;;;;;3.33;1.90;;;9.90;79.90;;;11.85;55.29;97393.59;5011591;28;20042;-40
2023/10/23 01:11:05;;;;;;;5.50;1.63;;;9.90;79.70;;;11.89;55.45;97392.25;4985879;28;20513;-41
2023/10/23 01:13:33;;;;;;;5.93;2.40;;;10.00;79.20;;;11.92;55.16;97391.91;5011221;28;20042;-39
2023/10/23 01:16:01;;;;;;;6.00;2.17;;;10.10;78.60;;;11.92;55.42;97391.06;5011123;28;20050;-40
2023/10/23 01:18:29;;;;;;;5.27;1.63;;;10.10;78.50;;;11.90;55.33;97383.22;5011791;28;20061;-40
2023/10/23 01:20:57;;;;;;;2.93;1.30;;;10.00;78.70;;;11.89;55.45;97386.91;5009962;28;20057;-40
2023/10/23 01:23:31;;;;;;;2.30;1.40;;;10.00;78.80;;;11.90;55.40;97387.75;5026086;28;20054;-40
2023/10/23 01:25:59;;;;;;;4.03;1.70;;;10.00;78.70;;;11.86;55.29;97371.22;5001639;28;20490;-40
2023/10/23 01:28:26;;;;;;;2.13;1.30;;;9.90;78.70;;;11.85;55.16;97382.91;5010395;28;20050;-40
2023/10/23 01:30:54;;;;;;;1.93;1.40;;;9.80;78.90;;;11.86;54.89;97378.41;5010876;28;20363;-41
2023/10/23 01:33:22;;;;;;;3.50;1.43;;;9.90;78.90;;;11.82;55.13;97378.78;5010784;28;20042;-40
2023/10/23 01:35:50;;;;;;;3.03;1.40;;;9.80;78.90;;;11.79;55.10;97384.44;5009598;28;20046;-40
2023/10/23 01:38:18;;;;;;;4.80;1.70;;;9.80;79.10;;;11.77;55.02;97380.28;5010349;28;20053;-41
2023/10/23 01:40:45;;;;;;;3.07;1.50;;;9.80;79.50;;;11.77;55.52;97377.63;5010723;28;20050;-40
2023/10/23 01:43:13;;;;;;;4.33;2.00;;;9.80;79.20;;;11.75;55.41;97377.81;5010070;28;20054;-40
2023/10/23 01:45:41;;;;;;;2.60;1.50;;;9.80;79.30;;;11.72;55.43;97380.81;5013600;28;20524;-40
2023/10/23 01:48:08;;;;;;;5.17;1.53;;;9.70;79.10;;;11.66;55.36;97386.84;5013160;28;20528;-40
2023/10/23 01:50:36;;;;;;;3.33;1.43;;;9.60;79.90;;;11.65;55.51;97382.53;5013000;28;20053;-40
2023/10/23 01:53:07;;;;;;;4.87;1.80;;;9.60;80.10;;;11.63;55.29;97379.19;5005299;28;20046;-40
2023/10/23 01:55:35;;;;;;;3.97;1.70;;;9.60;80.20;;;11.62;55.57;97383.69;5021818;28;20054;-40
2023/10/23 01:58:04;;;;;;;3.47;1.60;;;9.60;80.30;;;11.60;55.58;97380.38;5012767;28;20061;-40
2023/10/23 02:00:32;;;;;;;3.93;2.43;;;9.60;80.30;;;11.57;55.63;97374.53;5013716;28;20062;-42
2023/10/23 02:02:59;;;;;;;3.53;1.27;;;9.50;80.20;;;11.54;55.40;97375.72;5005292;28;20429;-40
2023/10/23 02:05:27;;;;;;;3.00;1.27;;;9.50;80.10;;;11.52;55.27;97369.75;5014070;28;20537;-40
2023/10/23 02:07:55;;;;;;;7.73;2.20;;;9.60;80.00;;;11.51;55.28;97385.91;5013776;28;20582;-40
2023/10/23 02:10:23;;;;;;;3.23;1.23;;;9.60;79.90;;;11.48;55.33;97384.44;5013341;28;20433;-40
2023/10/23 02:12:50;;;;;;;1.53;1.20;;;9.50;79.90;;;11.45;55.73;97376.78;5013050;28;20417;-40
2023/10/23 02:15:18;;;;;;;4.03;1.50;;;9.50;79.80;;;11.43;55.33;97379.59;5013416;28;20073;-41
2023/10/23 02:17:47;;;;;;;2.70;1.80;;;9.50;79.30;;;11.43;55.13;97379.59;5014164;28;20038;-40
2023/10/23 02:20:15;;;;;;;3.23;1.77;;;9.50;79.10;;;11.40;55.00;97385.28;5013447;28;20061;-40
2023/10/23 02:22:42;;;;;;;3.13;1.63;;;9.40;79.40;;;11.37;55.72;97388.28;5013898;28;20064;-40
2023/10/23 02:25:10;;;;;;;2.53;1.57;;;9.40;79.80;;;11.36;55.43;97386.66;5012778;28;20046;-40
2023/10/23 02:27:38;;;;;;;4.23;1.50;;;9.50;80.10;;;11.35;55.59;97379.63;4996709;28;20050;-40
2023/10/23 02:30:07;;;;;;;4.13;1.73;;;9.50;79.80;;;11.35;55.77;97384.97;4997308;28;20053;-40
2023/10/23 02:32:34;;;;;;;4.77;1.83;;;9.50;79.30;;;11.31;55.46;97388.97;5014297;28;20057;-40
2023/10/23 02:35:03;;;;;;;3.10;1.63;;;9.30;80.50;;;11.27;55.67;97384.19;5013876;28;20049;-40
2023/10/23 02:37:30;;;;;;;3.03;1.83;;;9.30;80.10;;;11.22;55.61;97380.19;5029618;28;20046;-40
2023/10/23 02:39:58;;;;;;;4.33;2.00;;;9.20;80.70;;;11.18;55.96;97381.53;5012612;28;20057;-40
2023/10/23 02:42:25;;;;;;;3.47;2.80;;;9.20;80.70;;;11.15;55.82;97384.53;5012750;28;20050;-39
2023/10/23 02:44:54;;;;;;;5.83;1.93;;;9.10;80.90;;;11.13;56.02;97388.41;5012363;28;20049;-40
2023/10/23 02:47:21;;;;;;;3.40;1.70;;;9.10;80.70;;;11.06;56.15;97382.06;5013048;28;20045;-39
2023/10/23 02:49:49;;;;;;;2.30;1.60;;;9.00;81.10;;;11.01;55.74;97390.56;5012533;28;20049;-40
2023/10/23 02:52:16;;;;;;;4.20;2.17;;;8.90;81.80;;;10.97;55.77;97386.56;5012009;28;20390;-39
2023/10/23 02:54:44;;;;;;;3.43;2.17;;;8.90;81.80;;;10.94;55.99;97384.28;5011677;28;20060;-40
2023/10/23 02:57:12;;;;;;;5.97;2.20;;;8.80;81.90;;;10.91;56.15;97387.25;5011855;28;20058;-39
2023/10/23 02:59:46;;;;;;;3.47;1.47;;;8.80;81.60;;;10.85;56.30;97388.78;5011873;28;20045;-40
2023/10/23 03:02:16;;;;;;;2.63;1.70;;;8.80;82.10;;;10.80;56.06;97388.47;5011893;28;20050;-40
2023/10/23 03:04:44;;;;;;;3.50;1.40;;;8.70;82.30;;;10.77;56.05;97394.13;5013384;28;20054;-40
2023/10/23 03:07:13;;;;;;;3.30;1.83;;;8.70;82.00;;;10.74;56.48;97386.44;5012354;28;20050;-40
2023/10/23 03:09:41;;;;;;;5.10;1.90;;;8.70;82.00;;;10.73;56.38;97384.81;5011818;28;20041;-41
2023/10/23 03:12:09;;;;;;;4.97;1.87;;;8.60;81.80;;;10.73;56.31;97390.13;5011872;28;20053;-41
2023/10/23 03:14:36;;;;;;;4.27;1.80;;;8.70;81.50;;;10.70;55.86;97391.31;5013645;28;20046;-40
2023/10/23 03:17:04;;;;;;;3.17;2.03;;;8.60;81.50;;;10.67;56.12;97388.97;5012616;28;20056;-40
2023/10/23 03:19:31;;;;;;;4.33;2.10;;;8.60;82.30;;;10.66;56.37;97389.13;5011417;28;20045;-40
2023/10/23 03:21:59;;;;;;;2.50;2.10;;;8.60;81.80;;;10.66;55.97;97391.78;5009210;28;20445;-40
2023/10/23 03:24:26;;;;;;;2.67;2.00;;;8.60;81.90;;;10.66;56.54;97397.13;5012110;28;20045;-41
2023/10/23 03:26:54;;;;;;;3.03;2.23;;;8.60;81.50;;;10.62;56.34;97388.63;5011460;28;20076;-40
2023/10/23 03:29:22;;;;;;;3.53;1.80;;;8.60;81.60;;;10.60;56.16;97391.47;5007580;28;20064;-40
2023/10/23 03:31:49;;;;;;;4.27;1.93;;;8.60;81.90;;;10.59;56.46;97391.63;5011803;28;20259;-41
2023/10/23 03:34:17;;;;;;;3.27;2.00;;;8.50;81.80;;;10.55;56.56;97390.31;5011110;28;20489;-40
2023/10/23 03:36:45;;;;;;;3.73;2.40;;;8.50;81.90;;;10.56;56.20;97390.13;5009900;28;20045;-40
2023/10/23 03:39:12;;;;;;;2.67;1.80;;;8.50;81.90;;;10.55;56.42;97392.97;5010995;28;20065;-40
2023/10/23 03:41:42;;;;;;;3.93;2.00;;;8.50;81.00;;;10.53;55.85;97387.81;5000832;28;20359;-40
2023/10/23 03:44:10;;;;;;;4.07;1.77;;;8.50;80.90;;;10.50;56.28;97393.47;5009388;28;20046;-40
2023/10/23 03:46:39;;;;;;;6.87;2.77;;;8.50;81.30;;;10.46;56.40;97383.31;5011742;28;20042;-40
2023/10/23 03:49:07;;;;;;;6.50;1.93;;;8.50;81.50;;;10.46;56.62;97386.81;5010267;28;20041;-40
2023/10/23 03:51:34;;;;;;;4.83;2.50;;;8.40;81.70;;;10.45;56.53;97385.16;5009586;28;20048;-41
2023/10/23 03:54:02;;;;;;;3.40;2.03;;;8.50;81.70;;;10.43;56.60;97376.53;5010772;28;20069;-40
2023/10/23 03:56:30;;;;;;;2.73;1.63;;;8.50;81.50;;;10.42;56.67;97373.00;5010702;28;20042;-40
2023/10/23 03:58:59;;;;;;;4.87;1.80;;;8.40;81.70;;;10.40;56.55;97382.16;5010652;28;20186;-40
2023/10/23 04:01:27;;;;;;;5.07;2.13;;;8.40;82.20;;;10.37;56.55;97374.50;5010866;28;20045;-40
2023/10/23 04:03:55;;;;;;;5.80;2.00;;;8.40;82.40;;;10.36;56.61;97370.19;5011050;28;20417;-40
2023/10/23 04:06:22;;;;;;;5.27;2.33;;;8.40;82.30;;;10.36;56.59;97376.34;5008223;28;20413;-40
2023/10/23 04:08:53;;;;;;;4.10;1.70;;;8.40;82.30;;;10.34;57.05;97370.34;5010828;28;20038;-40
2023/10/23 04:11:20;;;;;;;5.93;2.87;;;8.40;83.20;;;10.32;57.02;97375.00;5010930;28;20037;-40
2023/10/23 04:13:48;;;;;;;6.57;3.33;;;8.30;83.80;;;10.32;56.89;97371.53;5010362;28;20041;-40
2023/10/23 04:16:16;;;;;;;7.33;3.47;;;8.40;84.10;;;10.33;56.94;97368.69;5010102;28;20435;-40
2023/10/23 04:18:43;;;;;;;7.43;2.80;;;8.40;83.60;;;10.33;56.93;97362.53;5009861;28;20045;-39
2023/10/23 04:21:12;;;;;;;6.50;3.30;;;8.30;83.60;;;10.34;57.10;97372.19;5010720;28;20050;-40
2023/10/23 04:23:40;;;;;;;4.97;2.73;;;8.40;83.20;;;10.33;57.11;97368.69;5017502;28;20441;-40
2023/10/23 04:26:08;;;;;;;6.37;2.60;;;8.40;82.90;;;10.34;57.20;97366.88;5009976;28;20042;-40
2023/10/23 04:28:36;;;;;;;6.13;2.63;;;8.40;82.60;;;10.33;56.93;97366.03;5010244;28;20050;-40
2023/10/23 04:31:04;;;;;;;6.70;3.50;;;8.40;83.30;;;10.31;57.11;97361.88;5009215;28;20038;-40
2023/10/23 04:33:33;;;;;;;5.13;2.60;;;8.30;83.30;;;10.30;56.99;97365.50;5017172;28;20038;-39
2023/10/23 04:36:01;;;;;;;4.10;2.33;;;8.40;83.00;;;10.29;56.96;97369.16;5010227;28;20072;-40
2023/10/23 04:38:28;;;;;;;4.20;2.20;;;8.40;82.70;;;10.27;56.90;97356.00;5011617;28;20038;-40
2023/10/23 04:40:56;;;;;;;4.53;2.53;;;8.40;82.20;;;10.29;57.24;97354.00;5011028;28;20320;-40
2023/10/23 04:43:23;;;;;;;4.80;2.80;;;8.40;82.00;;;10.28;56.97;97360.34;5011366;28;20053;-41
2023/10/23 04:45:55;;;;;;;4.70;2.70;;;8.30;81.60;;;10.26;56.87;97354.34;5011456;28;20145;-40
2023/10/23 04:48:23;;;;;;;3.50;2.00;;;8.30;82.10;;;10.24;56.76;97343.88;5011070;28;20053;-40
2023/10/23 04:50:50;;;;;;;3.57;2.40;;;8.30;82.40;;;10.23;57.03;97350.19;5011214;28;20042;-39
2023/10/23 04:53:19;;;;;;;7.10;2.77;;;8.20;82.70;;;10.22;56.83;97347.72;5011146;28;20058;-40
2023/10/23 04:55:47;;;;;;;3.77;1.93;;;8.20;83.00;;;10.22;57.15;97342.38;5018455;28;20053;-40
2023/10/23 04:58:14;;;;;;;4.87;2.03;;;8.30;83.30;;;10.21;57.27;97352.19;5010820;28;20050;-40
2023/10/23 05:00:44;;;;;;;4.67;2.30;;;8.30;83.60;;;10.21;57.37;97351.34;5017315;28;20066;-40
2023/10/23 05:03:11;;;;;;;3.27;2.30;;;8.30;83.30;;;10.21;57.48;97343.38;5011404;28;20056;-40
2023/10/23 05:05:47;;;;;;;5.53;2.90;;;8.30;83.60;;;10.22;57.27;97340.56;5011181;28;20041;-39
2023/10/23 05:08:14;;;;;;;4.30;2.50;;;8.30;83.70;;;10.20;57.46;97337.22;5018210;28;20042;-40
2023/10/23 05:10:42;;;;;;;3.70;2.57;;;8.30;83.60;;;10.19;57.44;97337.38;5009546;28;20046;-39
2023/10/23 05:13:10;;;;;;;3.97;2.13;;;8.30;83.80;;;10.16;57.79;97335.09;5017825;28;20046;-40
2023/10/23 05:15:37;;;;;;;4.30;2.43;;;8.30;84.20;;;10.15;57.96;97333.41;5010911;28;20086;-42
2023/10/23 05:18:05;;;;;;;6.57;2.77;;;8.20;84.50;;;10.15;57.79;97325.41;5013020;28;20113;-42
2023/10/23 05:20:36;;;;;;;4.13;2.30;;;8.20;83.90;;;10.16;57.71;97333.25;5014837;28;20417;-42
2023/10/23 05:23:04;;;;;;;4.73;2.60;;;8.30;84.00;;;10.17;57.69;97328.75;5015216;28;20492;-41
2023/10/23 05:25:34;;;;;;;4.83;2.33;;;8.30;83.60;;;10.14;57.69;97337.91;5006995;28;20066;-42
2023/10/23 05:28:02;;;;;;;3.73;2.50;;;8.20;83.60;;;10.12;57.40;97331.06;5021768;28;20038;-41
2023/10/23 05:30:29;;;;;;;5.77;3.17;;;8.20;83.50;;;10.09;57.24;97340.22;5014333;28;20049;-41
2023/10/23 05:32:57;;;;;;;5.27;3.27;;;8.10;83.50;;;10.08;57.45;97338.56;5014881;28;20390;-43
2023/10/23 05:35:24;;;;;;;4.77;2.30;;;8.10;83.20;;;10.06;57.56;97343.19;5021943;28;20042;-45
2023/10/23 05:37:52;;;;;;;4.43;2.40;;;8.10;83.20;;;10.05;57.75;97338.88;5014517;28;20041;-42
2023/10/23 05:40:20;;;;;;;3.63;2.67;;;8.10;84.20;;;10.05;57.46;97338.88;5014965;28;20038;-42
2023/10/23 05:42:47;;;;;;;7.77;2.70;;;8.10;84.10;;;10.08;57.82;97335.06;5015004;28;20042;-41
2023/10/23 05:45:15;;;;;;;4.37;3.07;;;8.20;84.70;;;10.07;57.42;97338.72;5014896;28;20061;-44
2023/10/23 05:47:43;;;;;;;4.60;2.13;;;8.20;83.50;;;10.06;57.86;97335.22;5014571;28;20038;-42
2023/10/23 05:50:10;;;;;;;7.83;2.90;;;8.10;83.50;;;10.04;57.47;97345.19;5014539;28;20417;-41
2023/10/23 05:52:38;;;;;;;5.17;3.23;;;8.10;83.80;;;10.04;57.56;97350.50;5014727;28;20038;-41
2023/10/23 05:55:08;;;;;;;4.70;2.97;;;8.10;84.40;;;10.03;57.55;97344.38;5014688;28;20038;-43
2023/10/23 05:57:36;;;;;;;5.47;3.87;;;8.10;84.60;;;10.03;57.65;97346.19;5006819;28;20041;-43
2023/10/23 06:00:04;;;;;;;5.00;2.83;;;8.10;84.60;;;10.03;58.05;97352.34;5014010;28;20399;-41
2023/10/23 06:02:33;;;;;;;8.63;6.73;;;8.10;84.60;;;10.03;57.95;97356.84;5014471;28;20049;-43
2023/10/23 06:05:01;;;;;;;9.37;4.87;;;8.10;85.00;;;10.02;58.15;97358.69;5013414;28;20037;-46
2023/10/23 06:07:29;;;;;;;11.27;10.20;;;8.10;85.50;;;10.03;58.37;97362.16;5013953;28;20045;-41
2023/10/23 06:09:58;;;;;;;10.87;9.77;;;8.10;86.60;;;10.09;58.46;97355.34;5012332;28;20046;-41
2023/10/23 06:12:26;;;;;;;12.50;9.10;;;8.20;85.20;;;10.08;57.99;97359.00;5014317;28;20046;-43
2023/10/23 06:14:54;;;;;;;11.57;8.00;;;8.10;84.20;;;10.07;58.03;97360.81;5012851;28;20053;-41
2023/10/23 06:17:21;;;;;;;17.67;8.60;;;8.10;84.10;;;10.09;57.78;97366.81;5012648;28;20050;-42
2023/10/23 06:19:49;;;;;;;12.77;7.33;;;8.20;84.30;;;10.11;57.96;97364.81;5013817;28;20061;-41
2023/10/23 06:22:17;;;;;;;14.00;6.40;;;8.20;84.10;;;10.13;58.04;97364.66;5014007;28;20520;-41
2023/10/23 06:24:45;;;;;;;8.20;3.87;;;8.20;84.30;;;10.18;58.32;97359.69;5014054;28;20421;-41
2023/10/23 06:27:12;;;;;;;13.97;5.70;;;8.40;84.20;;;10.23;57.90;97360.81;5013631;28;20064;-42
2023/10/23 06:29:40;;;;;;;17.47;9.13;;;8.40;83.70;;;10.27;58.06;97353.34;5012782;28;20112;-43
2023/10/23 06:32:08;;;;;;;23.37;16.20;;;8.50;83.60;;;10.30;58.32;97357.53;5013820;28;20049;-41
2023/10/23 06:34:35;;;;;;;11.33;6.90;;;8.50;83.70;;;10.33;58.30;97354.53;5013754;28;20052;-41
2023/10/23 06:37:03;;;;;;;5.83;4.10;;;8.50;83.20;;;10.37;58.16;97359.38;5013158;28;20421;-41
2023/10/23 06:39:31;;;;;;;7.83;4.50;;;8.60;82.80;;;10.40;57.82;97358.22;5013185;28;20429;-42
2023/10/23 06:41:58;;;;;;;7.90;4.83;;;8.60;82.70;;;10.41;58.00;97351.88;5013805;28;20405;-42
2023/10/23 06:44:28;;;;;;;7.93;4.37;;;8.60;82.80;;;10.42;57.70;97343.72;5013797;28;20038;-43
2023/10/23 06:46:56;;;;;;;4.80;3.10;;;8.60;82.70;;;10.41;57.85;97351.88;4995459;28;20053;-40
2023/10/23 06:49:23;;;;;;;7.17;2.90;;;8.60;82.80;;;10.42;57.80;97349.06;5011198;28;20056;-41
2023/10/23 06:51:51;;;;;;;4.70;3.10;;;8.70;83.20;;;10.46;57.92;97349.56;5013747;28;20046;-45
2023/10/23 06:54:20;;;;;;;6.07;3.50;;;8.70;83.40;;;10.46;57.94;97354.88;5013358;28;20050;-42
2023/10/23 06:56:49;;;;;;;3.93;3.17;;;8.70;83.10;;;10.50;58.21;97348.22;5008970;28;20459;-42
2023/10/23 06:59:17;;;;;;;3.37;2.73;;;8.70;83.00;;;10.54;58.04;97356.69;5011455;28;20107;-43
2023/10/23 07:01:44;;;;;;;9.17;3.03;;;8.80;82.70;;;10.58;58.10;97358.03;5011861;28;20037;-41
2023/10/23 07:04:12;;;;;;;7.90;3.00;;;8.80;83.20;;;10.62;58.10;97356.69;5012023;28;20041;-41
2023/10/23 07:06:40;;;;;;;4.97;2.30;;;8.90;82.00;;;10.59;58.03;97346.38;5002844;28;20045;-41
2023/10/23 07:09:08;;;;;;;10.70;3.80;;;8.90;81.10;;;10.59;57.61;97335.75;5017967;28;20045;-40
2023/10/23 07:11:35;;;;;;;8.60;5.17;;;8.90;81.00;;;10.62;57.60;97338.91;5011134;28;20046;-43
2023/10/23 07:14:03;;;;;;;9.47;7.00;;;8.90;81.30;;;10.66;57.47;97336.72;5011770;28;20045;-41
2023/10/23 07:16:31;;;;;;;7.23;4.30;;;8.90;81.60;;;10.69;57.87;97340.88;5011284;28;20053;-43
2023/10/23 07:18:58;;;;;;;7.60;3.27;;;8.90;81.30;;;10.73;57.65;97334.22;5011225;28;20049;-41
2023/10/23 07:21:27;;;;;;;7.20;3.67;;;8.90;80.80;;;10.73;57.17;97335.03;5011372;28;20514;-41
2023/10/23 07:23:55;;;;;;;7.73;3.10;;;8.90;80.50;;;10.73;57.34;97334.22;5009866;28;20045;-41
2023/10/23 07:26:22;;;;;;;6.57;3.77;;;8.90;80.50;;;10.73;57.30;97332.38;5012569;28;20417;-40
2023/10/23 07:28:50;;;;;;;7.27;3.17;;;8.80;80.70;;;10.75;57.50;97333.03;5011434;28;20516;-41
2023/10/23 07:31:18;;;;;;;6.93;3.40;;;8.90;80.90;;;10.77;57.42;97333.69;5012662;28;20042;-41
2023/10/23 07:33:45;;;;;;;10.73;4.33;;;9.00;80.60;;;10.78;57.24;97324.72;5010955;28;20414;-42
2023/10/23 07:36:14;;;;;;;6.07;3.40;;;9.10;80.40;;;10.82;57.26;97322.56;5012614;28;20045;-42
2023/10/23 07:38:44;;;;;;;7.67;3.03;;;9.10;80.70;;;10.87;57.60;97324.69;5012228;28;20505;-40
2023/10/23 07:41:13;;;;;;;5.90;3.90;;;9.10;80.80;;;10.91;57.31;97324.16;5018575;28;20050;-42
2023/10/23 07:43:41;;;;;;;5.30;2.90;;;9.20;81.00;;;10.94;57.42;97328.34;5018850;28;20045;-41
2023/10/23 07:46:10;;;;;;;7.00;3.77;;;9.20;80.90;;;10.97;57.33;97320.00;5019528;28;20052;-41
2023/10/23 07:48:45;;;;;;;6.63;2.80;;;9.20;81.20;;;11.02;57.62;97315.81;5004077;28;20064;-44
2023/10/23 07:51:14;;;;;;;7.77;4.93;;;9.30;81.60;;;11.07;57.91;97317.13;5012569;28;20042;-42
2023/10/23 07:53:42;;;;;;;7.43;3.70;;;9.30;81.70;;;11.08;57.92;97318.81;5019416;28;20046;-41
2023/10/23 07:56:12;;;;;;;15.53;4.83;;;9.30;82.00;;;11.11;57.66;97315.78;5012001;28;20049;-41
2023/10/23 07:58:40;;;;;;;7.93;4.73;;;9.30;82.30;;;11.13;57.77;97314.63;5011962;28;20434;-41
2023/10/23 08:01:12;;;;;;;8.23;4.30;;;9.30;82.50;;;11.17;57.86;97323.09;5012218;28;20057;-42
2023/10/23 08:03:40;;;;;;;6.57;4.87;;;9.30;82.70;;;11.21;57.97;97314.56;5012377;28;20093;-40
2023/10/23 08:06:10;;;;;;;7.07;3.93;;;9.40;82.90;;;11.27;57.88;97302.41;5010772;28;20049;-43
2023/10/23 08:08:40;;;;;;;6.80;4.10;;;9.50;83.00;;;11.34;58.31;97291.84;5010445;28;20046;-43
2023/10/23 08:11:10;;;;;;;5.83;4.30;;;9.70;83.80;;;11.41;58.03;97295.50;5004594;28;20037;-42
2023/10/23 08:13:39;;;;;;;5.97;3.70;;;9.70;82.80;;;11.48;58.37;97283.13;5012849;28;20053;-41
2023/10/23 08:16:07;;;;;;;4.87;3.50;;;9.80;82.60;;;11.57;58.39;97290.09;5019797;28;20038;-40
2023/10/23 08:18:34;;;;;;;5.73;4.07;;;9.90;82.60;;;11.64;57.99;97287.53;5019844;28;20050;-43
2023/10/23 08:21:12;;;;;;;5.13;4.13;;;10.00;82.40;;;11.71;58.15;97290.31;5012499;28;20053;-40
2023/10/23 08:23:46;;;;;;;4.07;3.63;;;10.10;82.60;;;11.79;57.87;97284.94;5011187;28;20061;-40
2023/10/23 08:26:14;;;;;;;6.60;4.23;;;10.20;81.80;;;11.84;58.21;97279.88;5010010;28;20057;-41
2023/10/23 08:28:42;;;;;;;8.87;5.20;;;10.20;81.70;;;11.85;57.97;97280.72;5009260;28;20417;-41
2023/10/23 08:31:12;;;;;;;6.10;3.70;;;10.20;81.60;;;11.87;57.64;97292.88;5017426;28;20046;-40
2023/10/23 08:34:00;;;;;;;6.33;3.57;;;10.20;81.60;;;11.89;57.81;97296.22;5003628;28;20038;-41
2023/10/23 08:36:28;;;;;;;5.05;3.17;;;10.10;81.60;;;11.93;57.76;97304.72;5009801;28;20501;-40
2023/10/23 08:38:56;;;;;;;8.47;4.10;;;10.20;81.80;;;11.96;57.68;97302.53;5008625;28;20054;-43
2023/10/23 08:41:25;;;;;;;5.20;3.73;;;10.20;82.00;;;12.02;57.72;97311.66;5009876;28;20052;-40
2023/10/23 08:43:55;;;;;;;7.77;4.67;;;10.30;82.10;;;12.05;57.68;97315.78;5010281;28;20509;-41
2023/10/23 08:46:31;;;;;;;9.23;4.13;;;10.30;81.90;;;12.09;58.13;97309.91;5009997;28;20057;-41
2023/10/23 08:49:02;;;;;;;5.80;4.33;;;10.40;81.70;;;12.13;57.57;97305.88;5009579;28;20057;-42
2023/10/23 08:51:33;;;;;;;6.93;3.50;;;10.40;81.20;;;12.19;57.91;97301.66;5009435;28;20053;-41
2023/10/23 08:54:07;;;;;;;6.97;3.83;;;10.50;80.80;;;12.25;57.83;97313.44;5009639;28;20416;-40
2023/10/23 08:56:42;;;;;;;12.03;4.47;;;10.70;80.50;;;12.32;57.93;97309.06;5016055;28;20053;-41
2023/10/23 08:59:15;;;;;;;5.60;4.53;;;10.70;80.50;;;12.36;57.86;97311.19;5010993;28;20054;-41
2023/10/23 09:01:44;;;;;;;9.77;4.23;;;10.80;80.50;;;12.43;57.63;97305.09;4997914;28;20041;-44
2023/10/23 09:04:12;;;;;;;7.73;4.20;;;10.90;80.40;;;12.45;57.89;97297.78;5006159;28;20374;-44
2023/10/23 09:06:42;;;;;;;12.73;5.80;;;10.90;80.60;;;12.46;58.06;97294.09;5005906;28;20046;-42
2023/10/23 09:09:10;;;;;;;24.23;15.40;;;11.00;80.30;;;12.52;57.73;97293.34;5005786;28;20421;-41
2023/10/23 09:11:43;;;;;;;22.07;12.90;;;11.00;80.30;;;12.54;57.80;97289.50;5006070;28;20634;-41
2023/10/23 09:14:28;;;;;;;12.53;6.50;;;11.10;80.40;;;12.59;57.81;97283.59;5004736;28;20049;-41
2023/10/23 09:16:57;;;;;;;;;;;11.10;80.20;;;12.65;57.95;97284.72;5006773;28;20042;-42
2023/10/23 09:19:36;;;;;;;10.43;5.97;;;11.20;80.10;;;12.73;57.89;97288.13;5005704;28;19922;-41
2023/10/23 09:22:06;;;;;;;7.90;4.25;;;11.20;80.50;;;12.75;57.85;97291.44;5004233;28;20034;-41
2023/10/23 09:24:36;;;;;;;7.40;4.90;;;11.30;80.70;;;12.80;57.96;97285.56;5002213;28;20312;-44
2023/10/23 09:27:04;;;;;;;32.80;16.98;;;11.20;80.50;;;12.83;57.94;97279.00;5003372;28;20355;-42
2023/10/23 09:29:34;;;;;;;29.00;12.30;;;11.30;80.20;;;12.83;57.85;97279.00;5003133;28;20042;-45
2023/10/23 09:32:02;;;;;;;12.05;6.65;;;11.40;80.00;;;12.90;57.80;97275.41;5000023;28;20050;-41
2023/10/23 09:34:31;;;;;;;9.55;4.53;;;11.50;79.80;;;12.96;57.66;97280.00;5001285;28;20467;-41
2023/10/23 09:36:59;;;;;;;11.77;6.50;;;11.50;79.40;;;12.98;57.62;97282.50;5003305;28;20049;-42
2023/10/23 09:39:27;;;;;;;6.88;5.00;;;11.50;79.30;;;13.00;57.32;97291.16;5006585;28;20057;-44
2023/10/23 09:41:55;;;;;;;7.15;4.18;;;11.40;79.30;;;13.03;57.39;97292.63;5006250;28;20064;-43
2023/10/23 09:44:26;;;;;;;9.07;4.63;;;11.50;79.40;;;13.07;57.64;97283.25;5004705;28;20054;-41
2023/10/23 09:46:57;;;;;;;8.88;4.50;;;11.60;79.30;;;13.11;57.51;97281.88;4986038;28;20061;-42
2023/10/23 09:49:26;;;;;;;6.57;4.72;;;11.60;79.30;;;13.14;57.51;97285.00;5007240;28;20466;-42
2023/10/23 09:51:59;;;;;;;6.95;4.70;;;11.60;79.50;;;13.17;57.47;97287.28;5017907;28;20061;-42
2023/10/23 09:54:31;;;;;;;7.83;4.63;;;11.60;79.50;;;13.20;57.47;97291.41;5017919;28;20042;-42
2023/10/23 09:57:04;;;;;;;10.05;5.13;;;11.70;79.90;;;13.24;57.62;97292.72;5011213;28;20045;-41
2023/10/23 09:59:42;;;;;;;8.30;4.65;;;11.70;79.90;;;13.27;57.54;97295.00;5009937;28;20049;-42
2023/10/23 10:02:13;;;;;;;5.28;4.35;;;11.70;80.20;;;13.28;57.63;97295.81;5004260;28;20497;-41
2023/10/23 10:05:06;;;;;;;6.35;4.63;;;11.70;80.40;;;13.27;57.43;97295.00;5019440;28;20414;-42
2023/10/23 10:08:03;;;;;;;5.65;4.20;;;11.80;78.90;;;13.30;56.96;97291.16;5014275;28;20054;-42
2023/10/23 10:10:33;;;;;;;9.68;5.38;;;11.70;77.50;;;13.26;56.91;97282.66;5021327;28;20406;-42
2023/10/23 10:13:02;;;;;;;10.55;5.13;;;11.70;77.90;;;13.26;57.03;97277.31;5006286;28;20049;-41
2023/10/23 10:15:31;;;;;;;8.55;5.18;;;11.70;78.00;;;13.30;56.97;97265.28;5005344;28;20509;-42
2023/10/23 10:17:59;;;;;;;7.78;4.35;;;11.80;77.90;;;13.35;56.80;97273.53;5021023;28;20046;-41
2023/10/23 10:20:28;;;;;;;25.17;15.03;;;11.80;77.30;;;13.38;56.95;97265.16;5013968;28;20046;-40
2023/10/23 10:23:08;;;;;;;20.40;10.50;;;11.80;77.90;;;13.40;57.01;97267.66;5012709;28;20042;-44
2023/10/23 10:25:37;;;;;;;17.13;8.90;;;11.90;78.50;;;13.43;57.23;97256.56;5012992;28;20053;-42
2023/10/23 10:28:07;;;;;;;12.35;7.22;;;11.90;79.30;;;13.47;57.34;97257.81;5014422;28;20057;-41
2023/10/23 10:30:49;;;;;;;13.60;7.20;;;11.90;79.80;;;13.51;57.66;97260.97;5013602;28;20045;-41